METAR és
SPECI
METAR LHBP 311500Z 16009KT CAVOK 34/17 Q1015 NOSIG=
METAR LHBP 311430Z 16008KT CAVOK 34/15 Q1015 NOSIG=
METAR LHBP 311400Z 16010KT 130V200 CAVOK 34/14 Q1015 NOSIG=
METAR LHBP 311330Z 18009KT 150V220 CAVOK 35/14 Q1016 NOSIG=
METAR LHBP 311300Z 16010KT 130V200 CAVOK 34/15 Q1016 NOSIG=
METAR LHBP 311230Z 17009KT 120V210 CAVOK 34/14 Q1016 NOSIG=
TAF
TAF LHBP 311100Z 3112/0112 17008KT CAVOK BECMG 3117/3119 VRB03KT BECMG 0107/0110 20012KT=
GAMET
FAHU41 LHBM 311100
LHCC GAMET VALID 311200/311800 LHBP-
LHCC BUDAPEST FIR BLW FL100
SECN I
TURB: MOD SFC/2000FT AGL N OF N4709 AND W OF E01712
SIGMETS APPLICABLE: NIL=
OMSZ: 2015. augusztus 31. 12:42 (10:42  UTC)
[FAHU41]
AIRMET
Nincs érvényes távirat! 
WAHU41 LHBM 221635
LHCC AIRMET 02 VALID 221635/221800 LHBP-
LHCC BUDAPEST FIR ISOL TS OBS AND FCST N OF LINE N4744
E01820 - N4747 E01907 - N4812 E01947 TOP ABV FL100 STNR WKN=
OMSZ: 2015. augusztus 22. 18:38 (16:38  UTC)
[WAHU41]
SIGMET
Nincs érvényes távirat! 
WSHU31 LHBM 250500
LHCC SIGMET 01 VALID 250500/250800 LHBP-
LHCC BUDAPEST FIR EMBD TS FCST SW OF LINE N4717 E01628 -
N4709 E01845 - N4611 E01942 TOP FL300 MOV NE NC=
OMSZ: 2015. augusztus 25. 07:06 (05:06  UTC)
[WSHU31]
SIGMET
Vulkáni hamufelhő
Nincs érvényes távirat! 
WVHU31 LHBM 271515 CCA
LHCC SIGMET 03 VALID 271515/271800 LHBP-
LHCC BUDAPEST FIR EXERCISE VOLCEX12/01
CNL VA SIGMET 02 271200/271800
EXERCISE EXERCISE EXERCISE VOLCEX12/01=
OMSZ: 2015. április 14. 15:15 (13:15  UTC)
[WVHU31]